createdAt,value
2023-04-16T00:00:07.758Z,94.07
2023-04-16T00:01:07.981Z,93.49
2023-04-16T00:01:59.556Z,93.96
2023-04-16T00:02:51.289Z,93.36
2023-04-16T00:03:44.208Z,93.11
2023-04-16T00:04:36.051Z,92.85
2023-04-16T00:05:27.554Z,93.26
2023-04-16T00:06:23.061Z,92.61
2023-04-16T00:07:14.533Z,92.88
2023-04-16T00:08:06.085Z,92.66
2023-04-16T00:08:58.115Z,92.65
2023-04-16T00:09:50.783Z,93.00
2023-04-16T00:10:42.420Z,92.94
2023-04-16T00:11:33.862Z,92.53
2023-04-16T00:12:25.481Z,92.93
2023-04-16T00:13:19.391Z,93.20
2023-04-16T00:14:13.282Z,93.67
2023-04-16T00:15:06.336Z,93.06
2023-04-16T00:15:59.857Z,93.02
2023-04-16T00:16:51.456Z,92.90
2023-04-16T00:17:43.894Z,93.29
2023-04-16T00:18:37.705Z,93.11
2023-04-16T00:19:31.466Z,93.35
2023-04-16T00:20:22.831Z,93.70
2023-04-16T00:21:14.336Z,93.96
2023-04-16T00:22:05.847Z,93.87
2023-04-16T00:22:57.509Z,94.19
2023-04-16T00:23:48.874Z,93.69
2023-04-16T00:24:40.360Z,93.62
2023-04-16T00:25:31.852Z,93.62
2023-04-16T00:26:23.300Z,92.34
2023-04-16T00:27:17.609Z,92.82
2023-04-16T00:28:10.998Z,92.23
2023-04-16T00:29:02.668Z,92.39
2023-04-16T00:29:54.071Z,93.17
2023-04-16T00:30:45.718Z,92.45
2023-04-16T00:31:37.177Z,92.33
2023-04-16T00:32:28.648Z,93.03
2023-04-16T00:33:22.574Z,92.93
2023-04-16T00:34:14.036Z,92.88
2023-04-16T00:35:06.093Z,93.12
2023-04-16T00:35:57.606Z,93.20
2023-04-16T00:36:49.414Z,92.53
2023-04-16T00:37:40.895Z,92.63
2023-04-16T00:38:32.772Z,93.06
2023-04-16T00:39:24.599Z,93.20
2023-04-16T00:40:16.204Z,92.27
2023-04-16T00:41:09.671Z,92.33
2023-04-16T00:42:01.780Z,92.74
2023-04-16T00:42:54.033Z,92.67
2023-04-16T00:43:45.663Z,92.84
2023-04-16T00:44:37.366Z,92.86
2023-04-16T00:45:29.018Z,93.26
2023-04-16T00:46:23.285Z,93.37
2023-04-16T00:47:15.188Z,93.04
2023-04-16T00:48:06.808Z,93.32
2023-04-16T00:49:01.676Z,93.15
2023-04-16T00:49:54.371Z,92.58
2023-04-16T00:50:45.972Z,92.39
2023-04-16T00:51:37.459Z,92.76
2023-04-16T00:52:29.540Z,93.02
2023-04-16T00:53:21.157Z,93.02
2023-04-16T00:54:12.714Z,93.22
2023-04-16T00:55:07.579Z,93.20
2023-04-16T00:56:02.197Z,93.02
2023-04-16T00:56:53.747Z,93.05
2023-04-16T00:57:45.899Z,93.51
2023-04-16T00:58:37.937Z,93.18
2023-04-16T00:59:29.490Z,93.36
2023-04-16T01:00:21.513Z,93.39
2023-04-16T01:01:14.463Z,93.52
2023-04-16T01:02:06.189Z,93.15
2023-04-16T01:03:00.267Z,93.43
2023-04-16T01:03:51.882Z,93.28
2023-04-16T01:04:43.820Z,92.65
2023-04-16T01:05:36.705Z,92.94
2023-04-16T01:06:28.139Z,93.53
2023-04-16T01:07:20.616Z,93.46
2023-04-16T01:08:17.709Z,93.43
2023-04-16T01:09:11.724Z,93.86
2023-04-16T01:10:04.050Z,93.93
2023-04-16T01:10:55.464Z,93.65
2023-04-16T01:11:46.919Z,93.54
2023-04-16T01:12:38.469Z,93.46
2023-04-16T01:13:30.784Z,93.57
2023-04-16T01:14:22.219Z,93.61
2023-04-16T01:15:14.218Z,93.64
2023-04-16T01:16:07.899Z,93.94
2023-04-16T01:16:59.742Z,93.79
2023-04-16T01:17:51.216Z,93.90
2023-04-16T01:18:42.937Z,93.67
2023-04-16T01:19:38.411Z,94.03
2023-04-16T01:20:29.853Z,94.27
2023-04-16T01:21:21.534Z,94.33
2023-04-16T01:22:13.110Z,94.15
2023-04-16T01:23:04.584Z,93.76
2023-04-16T01:23:57.209Z,94.03
2023-04-16T01:24:48.674Z,93.92
2023-04-16T01:25:40.881Z,93.88
2023-04-16T01:26:33.692Z,93.81
2023-04-16T01:27:25.195Z,93.65
2023-04-16T01:28:17.008Z,93.59
2023-04-16T01:29:11.355Z,93.40
2023-04-16T01:30:03.111Z,93.65
2023-04-16T01:31:07.406Z,93.56
2023-04-16T01:32:26.092Z,93.67
2023-04-16T01:33:19.070Z,93.78
2023-04-16T01:34:10.564Z,93.54
2023-04-16T01:35:01.999Z,93.42
2023-04-16T01:35:53.625Z,93.47
2023-04-16T01:36:45.502Z,93.64
2023-04-16T01:37:36.958Z,93.65
2023-04-16T01:38:28.380Z,93.39
2023-04-16T01:39:19.777Z,93.06
2023-04-16T01:40:11.631Z,93.40
2023-04-16T01:41:03.194Z,93.13
2023-04-16T01:41:54.615Z,92.84
2023-04-16T01:42:46.063Z,93.06
2023-04-16T01:43:40.044Z,93.27
2023-04-16T01:44:31.794Z,92.92
2023-04-16T01:45:26.099Z,92.84
2023-04-16T01:46:36.224Z,93.06
2023-04-16T01:47:27.999Z,93.26
2023-04-16T01:48:19.706Z,93.31
2023-04-16T01:49:11.733Z,93.28
2023-04-16T01:50:04.065Z,92.95
2023-04-16T01:50:55.822Z,93.20
2023-04-16T01:51:48.907Z,92.88
2023-04-16T01:52:40.477Z,92.87
2023-04-16T01:53:32.073Z,92.88
2023-04-16T01:54:23.806Z,92.82
2023-04-16T01:55:15.724Z,93.13
2023-04-16T01:56:07.529Z,93.15
2023-04-16T01:56:59.193Z,93.33
2023-04-16T01:57:50.784Z,92.64
2023-04-16T01:58:42.804Z,92.99
2023-04-16T01:59:34.285Z,93.11
2023-04-16T02:00:25.903Z,92.94
2023-04-16T02:01:18.262Z,93.08
2023-04-16T02:02:12.600Z,93.31
2023-04-16T02:03:04.663Z,93.35
2023-04-16T02:03:57.629Z,93.23
2023-04-16T02:04:49.201Z,93.08
2023-04-16T02:05:43.034Z,93.39
2023-04-16T02:06:34.445Z,93.44
2023-04-16T02:07:27.333Z,92.53
2023-04-16T02:08:18.995Z,93.43
2023-04-16T02:09:11.800Z,93.75
2023-04-16T02:10:06.552Z,92.98
2023-04-16T02:11:00.768Z,93.04
2023-04-16T02:11:52.500Z,92.67
2023-04-16T02:12:44.316Z,92.32
2023-04-16T02:13:36.986Z,92.26
2023-04-16T02:14:30.019Z,92.51
2023-04-16T02:15:21.681Z,92.01
2023-04-16T02:16:13.248Z,91.93
2023-04-16T02:17:12.346Z,91.77
2023-04-16T02:18:06.029Z,92.62
2023-04-16T02:18:57.923Z,92.46
2023-04-16T02:19:53.057Z,92.28
2023-04-16T02:20:47.030Z,92.63
2023-04-16T02:21:39.554Z,93.06
2023-04-16T02:22:31.009Z,92.77
2023-04-16T02:23:22.464Z,93.08
2023-04-16T02:24:13.871Z,93.42
2023-04-16T02:25:08.841Z,93.46
2023-04-16T02:26:01.274Z,93.36
2023-04-16T02:26:54.430Z,93.42
2023-04-16T02:27:46.154Z,93.42
2023-04-16T02:28:48.624Z,93.14
2023-04-16T02:29:41.766Z,93.11
2023-04-16T02:30:39.934Z,93.36
2023-04-16T02:31:32.066Z,93.00
2023-04-16T02:32:23.621Z,93.36
2023-04-16T02:33:16.614Z,93.35
2023-04-16T02:34:18.656Z,93.75
2023-04-16T02:35:12.800Z,93.75
2023-04-16T02:36:04.611Z,93.87
2023-04-16T02:36:58.252Z,94.01
2023-04-16T02:37:49.806Z,94.02
2023-04-16T02:38:41.414Z,93.91
2023-04-16T02:39:33.388Z,93.66
2023-04-16T02:40:25.630Z,93.33
2023-04-16T02:41:17.314Z,92.81
2023-04-16T02:42:08.764Z,92.90
2023-04-16T02:43:01.532Z,92.79
2023-04-16T02:43:53.207Z,93.24
2023-04-16T02:44:44.709Z,92.72
2023-04-16T02:45:36.221Z,93.01
2023-04-16T02:46:28.029Z,93.23
2023-04-16T02:47:19.616Z,92.89
2023-04-16T02:48:11.205Z,93.00
2023-04-16T02:49:02.738Z,93.10
2023-04-16T02:49:54.188Z,93.53
2023-04-16T02:50:48.192Z,93.21
2023-04-16T02:51:39.615Z,93.12
2023-04-16T02:52:32.222Z,93.51
2023-04-16T02:53:23.757Z,92.89
2023-04-16T02:54:15.510Z,92.95
2023-04-16T02:55:07.322Z,92.89
2023-04-16T02:55:58.832Z,92.86
2023-04-16T02:56:52.305Z,92.99
2023-04-16T02:57:43.897Z,93.11
2023-04-16T02:58:35.581Z,93.21
2023-04-16T02:59:28.293Z,93.33
2023-04-16T03:00:19.842Z,92.86
2023-04-16T03:01:11.562Z,92.79
2023-04-16T03:02:03.445Z,92.03
2023-04-16T03:02:55.373Z,92.08
2023-04-16T03:03:47.017Z,92.56
2023-04-16T03:04:38.687Z,92.26
2023-04-16T03:05:30.323Z,92.87
2023-04-16T03:06:21.776Z,92.59
2023-04-16T03:07:13.899Z,92.49
2023-04-16T03:08:08.745Z,92.76
2023-04-16T03:09:00.431Z,93.08
2023-04-16T03:09:51.963Z,92.91
2023-04-16T03:10:43.428Z,93.24
2023-04-16T03:11:34.847Z,93.11
2023-04-16T03:12:26.254Z,93.22
2023-04-16T03:13:17.785Z,92.97
2023-04-16T03:14:09.607Z,93.04
2023-04-16T03:15:01.107Z,93.09
2023-04-16T03:15:52.690Z,92.53
2023-04-16T03:16:44.369Z,92.75
2023-04-16T03:17:35.963Z,92.80
2023-04-16T03:18:27.637Z,92.90
2023-04-16T03:19:19.462Z,93.21
2023-04-16T03:20:11.268Z,93.29
2023-04-16T03:21:06.199Z,93.19
2023-04-16T03:21:57.634Z,93.73
2023-04-16T03:22:49.586Z,93.87
2023-04-16T03:23:41.212Z,93.58
2023-04-16T03:24:33.100Z,93.12
2023-04-16T03:25:24.507Z,93.27
2023-04-16T03:26:16.400Z,92.96
2023-04-16T03:27:07.839Z,93.56
2023-04-16T03:27:59.319Z,93.16
2023-04-16T03:28:50.768Z,93.57
2023-04-16T03:29:42.401Z,93.36
2023-04-16T03:30:36.861Z,93.36
2023-04-16T03:31:28.523Z,93.53
2023-04-16T03:32:20.090Z,93.67
2023-04-16T03:33:11.778Z,93.67
2023-04-16T03:34:04.958Z,93.86
2023-04-16T03:34:57.129Z,93.64
2023-04-16T03:35:57.784Z,93.24
2023-04-16T03:36:53.687Z,93.17
2023-04-16T03:37:45.212Z,93.33
2023-04-16T03:38:36.684Z,93.52
2023-04-16T03:39:28.494Z,93.36
2023-04-16T03:40:20.049Z,93.73
2023-04-16T03:41:11.725Z,93.73
2023-04-16T03:42:03.833Z,94.02
2023-04-16T03:42:55.615Z,93.98
2023-04-16T03:43:47.104Z,93.99
2023-04-16T03:44:38.773Z,94.05
2023-04-16T03:45:30.563Z,94.04
2023-04-16T03:46:23.265Z,94.31
2023-04-16T03:47:16.289Z,94.30
2023-04-16T03:48:11.474Z,94.19
2023-04-16T03:49:03.008Z,94.22
2023-04-16T03:49:54.435Z,94.31
2023-04-16T03:50:48.444Z,94.44
2023-04-16T03:51:41.823Z,94.32
2023-04-16T03:52:33.388Z,94.22
2023-04-16T03:53:25.316Z,94.11
2023-04-16T03:54:16.976Z,93.77
2023-04-16T03:55:14.855Z,94.34
2023-04-16T03:56:06.745Z,94.52
2023-04-16T03:56:58.413Z,94.61
2023-04-16T03:57:50.278Z,94.56
2023-04-16T03:58:42.826Z,94.71
2023-04-16T03:59:34.298Z,94.23
2023-04-16T04:00:26.020Z,94.18
2023-04-16T04:01:27.774Z,93.82
2023-04-16T04:02:20.804Z,93.87
2023-04-16T04:03:13.681Z,94.04
2023-04-16T04:04:07.423Z,94.18
2023-04-16T04:04:59.004Z,94.41
2023-04-16T04:05:50.526Z,94.56
2023-04-16T04:06:48.858Z,94.28
2023-04-16T04:07:40.377Z,94.17
2023-04-16T04:08:31.921Z,94.73
2023-04-16T04:09:23.379Z,94.63
2023-04-16T04:10:15.601Z,94.18
2023-04-16T04:11:07.523Z,94.82
2023-04-16T04:12:00.744Z,94.71
2023-04-16T04:12:53.091Z,94.81
2023-04-16T04:13:46.511Z,94.78
2023-04-16T04:14:39.904Z,94.88
2023-04-16T04:15:32.271Z,94.53
2023-04-16T04:16:23.760Z,94.79
2023-04-16T04:17:16.755Z,94.33
2023-04-16T04:18:08.249Z,94.41
2023-04-16T04:19:10.101Z,94.50
2023-04-16T04:20:02.267Z,94.68
2023-04-16T04:20:55.830Z,94.47
2023-04-16T04:21:51.593Z,94.38
2023-04-16T04:22:43.037Z,94.48
2023-04-16T04:23:36.914Z,94.44
2023-04-16T04:24:29.532Z,94.35
2023-04-16T04:25:22.255Z,94.15
2023-04-16T04:26:13.678Z,94.22
2023-04-16T04:27:07.012Z,93.75
2023-04-16T04:27:58.482Z,93.91
2023-04-16T04:28:49.923Z,93.60
2023-04-16T04:29:42.766Z,93.71
2023-04-16T04:30:35.744Z,93.42
2023-04-16T04:31:27.872Z,93.60
2023-04-16T04:32:20.688Z,93.75
2023-04-16T04:33:14.088Z,93.50
2023-04-16T04:34:06.580Z,93.50
2023-04-16T04:35:00.238Z,93.91
2023-04-16T04:35:52.098Z,94.10
2023-04-16T04:36:47.335Z,94.00
2023-04-16T04:37:39.641Z,94.45
2023-04-16T04:38:38.792Z,94.39
2023-04-16T04:39:31.742Z,94.18
2023-04-16T04:40:23.590Z,94.20
2023-04-16T04:41:17.485Z,94.27
2023-04-16T04:42:09.607Z,94.28
2023-04-16T04:43:03.578Z,94.22
2023-04-16T04:43:55.228Z,94.68
2023-04-16T04:44:47.306Z,94.35
2023-04-16T04:45:39.073Z,94.08
2023-04-16T04:46:30.806Z,94.50
2023-04-16T04:47:22.293Z,93.86
2023-04-16T04:48:13.821Z,94.02
2023-04-16T04:49:05.650Z,94.00
2023-04-16T04:49:57.165Z,94.04
2023-04-16T04:50:48.863Z,93.46
2023-04-16T04:51:42.809Z,93.31
2023-04-16T04:52:35.977Z,93.49
2023-04-16T04:53:27.931Z,93.59
2023-04-16T04:54:19.794Z,93.41
2023-04-16T04:55:11.503Z,93.35
2023-04-16T04:56:12.143Z,93.53
2023-04-16T04:57:04.556Z,93.72
2023-04-16T04:57:56.283Z,93.77
2023-04-16T04:58:50.795Z,93.79
2023-04-16T04:59:44.093Z,93.86
2023-04-16T05:00:37.181Z,93.81
2023-04-16T05:01:28.660Z,93.58
2023-04-16T05:02:20.387Z,93.60
2023-04-16T05:03:12.552Z,93.56
2023-04-16T05:04:04.411Z,93.65
2023-04-16T05:04:56.116Z,93.65
2023-04-16T05:05:47.814Z,93.60
2023-04-16T05:06:39.594Z,93.60
2023-04-16T05:07:31.600Z,93.91
2023-04-16T05:08:23.074Z,94.09
2023-04-16T05:09:14.471Z,94.39
2023-04-16T05:10:06.595Z,94.30
2023-04-16T05:11:00.263Z,94.43
2023-04-16T05:11:52.056Z,94.13
2023-04-16T05:12:43.540Z,93.78
2023-04-16T05:13:34.881Z,93.26
2023-04-16T05:14:26.285Z,93.44
2023-04-16T05:15:17.989Z,93.83
2023-04-16T05:16:09.583Z,93.34
2023-04-16T05:17:03.528Z,92.61
2023-04-16T05:17:56.164Z,93.19
2023-04-16T05:18:49.038Z,93.03
2023-04-16T05:19:40.470Z,92.32
2023-04-16T05:20:32.019Z,92.85
2023-04-16T05:21:24.091Z,92.82
2023-04-16T05:22:18.773Z,92.42
2023-04-16T05:23:10.465Z,92.03
2023-04-16T05:24:02.900Z,92.33
2023-04-16T05:24:54.329Z,92.08
2023-04-16T05:25:48.331Z,92.48
2023-04-16T05:26:39.804Z,92.45
2023-04-16T05:27:31.509Z,92.18
2023-04-16T05:28:22.912Z,92.33
2023-04-16T05:29:14.497Z,92.79
2023-04-16T05:30:06.641Z,92.59
2023-04-16T05:30:58.147Z,92.41
2023-04-16T05:31:51.993Z,92.24
2023-04-16T05:32:43.441Z,92.15
2023-04-16T05:33:35.144Z,92.35
2023-04-16T05:34:26.622Z,92.88
2023-04-16T05:35:18.042Z,92.86
2023-04-16T05:36:09.557Z,92.88
2023-04-16T05:37:01.400Z,92.81
2023-04-16T05:37:55.116Z,92.29
2023-04-16T05:38:46.823Z,92.65
2023-04-16T05:39:38.193Z,92.75
2023-04-16T05:40:29.857Z,92.51
2023-04-16T05:41:21.501Z,92.69
2023-04-16T05:42:12.872Z,92.46
2023-04-16T05:43:04.547Z,92.10
2023-04-16T05:43:58.280Z,92.57
2023-04-16T05:44:50.892Z,92.50
2023-04-16T05:45:44.197Z,92.33
2023-04-16T05:46:35.814Z,91.79
2023-04-16T05:47:27.299Z,91.25
2023-04-16T05:48:20.003Z,91.50
2023-04-16T05:49:11.648Z,90.70
2023-04-16T05:50:03.414Z,91.41
2023-04-16T05:50:54.797Z,91.82
2023-04-16T05:51:46.599Z,91.69
2023-04-16T05:52:38.681Z,91.18
2023-04-16T05:53:30.500Z,91.77
2023-04-16T05:54:23.375Z,91.30
2023-04-16T05:55:14.830Z,91.82
2023-04-16T05:56:06.771Z,91.92
2023-04-16T05:56:58.194Z,92.25
2023-04-16T05:57:49.838Z,92.11
2023-04-16T05:58:41.318Z,92.20
2023-04-16T05:59:33.133Z,92.13
2023-04-16T06:00:25.488Z,92.71
2023-04-16T06:01:18.436Z,92.60
2023-04-16T06:02:10.048Z,92.25
2023-04-16T06:03:02.743Z,92.69
2023-04-16T06:03:54.795Z,92.33
2023-04-16T06:04:46.332Z,92.43
2023-04-16T06:05:37.800Z,92.68
2023-04-16T06:06:29.490Z,92.54
2023-04-16T06:07:20.891Z,92.55
2023-04-16T06:08:12.317Z,92.42
2023-04-16T06:09:06.086Z,92.54
2023-04-16T06:09:57.797Z,92.75
2023-04-16T06:10:49.526Z,92.27
2023-04-16T06:11:41.337Z,92.57
2023-04-16T06:12:32.829Z,92.20
2023-04-16T06:13:24.901Z,91.51
2023-04-16T06:14:16.365Z,91.63
2023-04-16T06:15:08.480Z,91.48
2023-04-16T06:16:01.223Z,91.60
2023-04-16T06:16:52.743Z,92.04
2023-04-16T06:17:44.406Z,92.10
2023-04-16T06:18:36.604Z,91.96
2023-04-16T06:19:27.966Z,92.26
2023-04-16T06:20:19.337Z,92.18
2023-04-16T06:21:10.826Z,92.50
2023-04-16T06:22:02.453Z,92.58
2023-04-16T06:22:56.548Z,92.22
2023-04-16T06:23:48.351Z,91.15
2023-04-16T06:24:40.063Z,90.96
2023-04-16T06:25:31.588Z,90.59
2023-04-16T06:26:23.089Z,90.56
2023-04-16T06:27:14.510Z,90.04
2023-04-16T06:28:05.991Z,90.14
2023-04-16T06:28:57.449Z,90.67
2023-04-16T06:29:49.267Z,91.51
2023-04-16T06:30:42.804Z,91.69
2023-04-16T06:31:36.135Z,92.21
2023-04-16T06:32:27.859Z,91.88
2023-04-16T06:33:19.442Z,91.61
2023-04-16T06:34:10.993Z,92.20
2023-04-16T06:35:04.317Z,91.86
2023-04-16T06:35:58.228Z,91.78
2023-04-16T06:36:49.573Z,91.43
2023-04-16T06:37:41.578Z,91.72
2023-04-16T06:38:32.995Z,92.04
2023-04-16T06:39:24.440Z,91.79
2023-04-16T06:40:18.677Z,91.16
2023-04-16T06:41:10.497Z,90.69
2023-04-16T06:42:02.385Z,90.60
2023-04-16T06:42:54.297Z,90.74
2023-04-16T06:43:48.231Z,90.27
2023-04-16T06:44:39.590Z,90.63
2023-04-16T06:45:31.296Z,90.94
2023-04-16T06:46:22.763Z,90.97
2023-04-16T06:47:14.315Z,91.57
2023-04-16T06:48:05.947Z,90.65
2023-04-16T06:48:57.647Z,90.31
2023-04-16T06:49:49.065Z,91.02
2023-04-16T06:50:44.114Z,91.05
2023-04-16T06:51:35.699Z,91.04
2023-04-16T06:52:27.208Z,91.21
2023-04-16T06:53:18.812Z,91.01
2023-04-16T06:54:10.372Z,90.90
2023-04-16T06:55:02.548Z,90.20
2023-04-16T06:55:56.072Z,90.14
2023-04-16T06:56:47.777Z,90.75
2023-04-16T06:57:40.595Z,91.12
2023-04-16T06:58:33.050Z,90.09
2023-04-16T06:59:24.742Z,89.09
2023-04-16T07:00:16.536Z,89.88
2023-04-16T07:01:08.024Z,90.02
2023-04-16T07:01:59.632Z,89.01
2023-04-16T07:02:51.405Z,89.60
2023-04-16T07:03:43.278Z,89.21
2023-04-16T07:04:34.818Z,89.18
2023-04-16T07:05:28.827Z,89.65
2023-04-16T07:06:20.468Z,90.03
2023-04-16T07:07:12.967Z,89.01
2023-04-16T07:08:04.418Z,88.48
2023-04-16T07:08:55.961Z,88.80
2023-04-16T07:09:47.356Z,89.00
2023-04-16T07:10:38.988Z,88.89
2023-04-16T07:11:30.702Z,87.84
2023-04-16T07:12:23.172Z,88.57
2023-04-16T07:13:27.830Z,87.87
2023-04-16T07:14:30.486Z,87.32
2023-04-16T07:15:25.710Z,87.61
2023-04-16T07:16:21.001Z,87.51
2023-04-16T07:17:15.765Z,87.82
2023-04-16T07:18:07.982Z,87.00
2023-04-16T07:19:03.497Z,87.96
2023-04-16T07:19:55.768Z,87.46
2023-04-16T07:20:50.825Z,88.14
2023-04-16T07:21:43.993Z,88.67
2023-04-16T07:22:40.091Z,88.41
2023-04-16T07:23:36.695Z,88.26
2023-04-16T07:24:33.571Z,88.26
2023-04-16T07:25:29.304Z,88.98
2023-04-16T07:26:23.610Z,88.95
2023-04-16T07:27:26.266Z,89.20
2023-04-16T07:28:18.598Z,89.12
2023-04-16T07:29:16.658Z,88.45
2023-04-16T07:30:09.374Z,87.72
2023-04-16T07:31:02.422Z,88.80
2023-04-16T07:31:54.438Z,88.29
2023-04-16T07:32:51.806Z,87.78
2023-04-16T07:33:44.109Z,87.09
2023-04-16T07:34:38.824Z,85.84
2023-04-16T07:35:41.049Z,86.64
2023-04-16T07:36:38.740Z,86.89
2023-04-16T07:37:34.241Z,87.18
2023-04-16T07:38:32.027Z,86.69
2023-04-16T07:44:00.672Z,85.43
2023-04-16T07:44:55.124Z,85.36
2023-04-16T07:45:50.196Z,85.82
2023-04-16T07:46:47.325Z,85.43
2023-04-16T07:47:43.008Z,84.53
2023-04-16T07:48:34.993Z,85.51
2023-04-16T07:49:27.637Z,85.14
2023-04-16T07:50:22.000Z,85.27
2023-04-16T07:51:16.216Z,84.46
2023-04-16T07:52:10.386Z,85.12
2023-04-16T07:53:05.168Z,85.09
2023-04-16T07:54:07.164Z,84.14
2023-04-16T07:54:59.619Z,82.42
2023-04-16T07:55:51.958Z,83.58
2023-04-16T07:56:44.887Z,83.67
2023-04-16T07:57:40.505Z,82.92
2023-04-16T07:58:32.723Z,83.45
2023-04-16T07:59:24.797Z,83.59
2023-04-16T08:00:19.238Z,83.52
2023-04-16T08:01:31.635Z,82.21
2023-04-16T08:02:45.172Z,82.18
2023-04-16T08:05:20.111Z,83.26
2023-04-16T08:06:16.245Z,81.93
2023-04-16T08:07:08.668Z,80.29
2023-04-16T08:08:04.103Z,81.62
2023-04-16T08:08:56.812Z,81.65
2023-04-16T08:09:55.022Z,80.28
2023-04-16T08:10:46.801Z,80.35
2023-04-16T08:11:41.933Z,80.27
2023-04-16T08:12:33.509Z,81.40
2023-04-16T08:13:24.914Z,81.96
2023-04-16T08:14:17.135Z,81.72
2023-04-16T08:15:11.061Z,81.35
2023-04-16T08:16:02.669Z,82.38
2023-04-16T08:16:54.349Z,80.81
2023-04-16T08:17:45.895Z,80.53
2023-04-16T08:18:39.417Z,78.54
2023-04-16T08:19:31.158Z,80.72
2023-04-16T08:20:27.997Z,81.23
2023-04-16T08:21:19.796Z,80.72
2023-04-16T08:22:14.138Z,79.22
2023-04-16T08:23:06.254Z,78.73
2023-04-16T08:23:58.095Z,80.19
2023-04-16T08:24:53.440Z,79.25
2023-04-16T08:25:48.348Z,81.06
2023-04-16T08:26:40.444Z,79.70
2023-04-16T08:27:32.040Z,79.43
2023-04-16T08:28:25.873Z,79.67
2023-04-16T08:29:17.613Z,80.71
2023-04-16T08:30:09.332Z,80.43
2023-04-16T08:31:00.911Z,81.06
2023-04-16T08:31:54.226Z,80.05
2023-04-16T08:32:48.686Z,79.15
2023-04-16T08:33:42.316Z,80.21
2023-04-16T08:34:34.498Z,78.12
2023-04-16T08:35:27.954Z,79.13
2023-04-16T08:36:22.541Z,78.47
2023-04-16T08:37:14.707Z,80.90
2023-04-16T08:38:07.380Z,80.51
2023-04-16T08:38:59.410Z,81.37
2023-04-16T08:39:50.935Z,80.53
2023-04-16T08:40:43.303Z,80.87
2023-04-16T08:41:38.452Z,80.94
2023-04-16T08:42:41.723Z,80.84
2023-04-16T08:43:37.912Z,80.15
2023-04-16T08:44:37.468Z,79.92
2023-04-16T08:45:31.087Z,80.53
2023-04-16T08:46:26.110Z,79.49
2023-04-16T08:47:19.675Z,80.29
2023-04-16T08:48:14.319Z,78.72
2023-04-16T08:49:08.203Z,80.35
2023-04-16T08:50:00.838Z,78.21
2023-04-16T08:50:54.998Z,80.03
2023-04-16T08:51:52.180Z,77.73
2023-04-16T08:52:52.427Z,77.57
2023-04-16T08:53:53.581Z,77.91
2023-04-16T08:55:06.192Z,79.24
2023-04-16T08:56:02.190Z,80.02
2023-04-16T08:56:55.577Z,80.00
2023-04-16T08:57:58.574Z,79.61
2023-04-16T08:58:51.275Z,79.68
2023-04-16T08:59:47.016Z,80.29
2023-04-16T09:00:41.188Z,79.58
2023-04-16T09:01:33.930Z,80.40
2023-04-16T09:02:29.682Z,79.20
2023-04-16T09:03:22.164Z,77.64
2023-04-16T09:04:15.800Z,77.83
2023-04-16T09:05:09.400Z,78.59
2023-04-16T09:06:04.039Z,78.33
2023-04-16T09:06:57.525Z,77.04
2023-04-16T09:07:48.985Z,77.59
2023-04-16T09:08:43.790Z,78.35
2023-04-16T09:09:37.809Z,76.79
2023-04-16T09:10:29.349Z,76.11
2023-04-16T09:11:21.283Z,76.22
2023-04-16T09:12:13.240Z,77.87
2023-04-16T09:13:04.734Z,78.21
2023-04-16T09:13:57.190Z,77.60
2023-04-16T09:14:49.913Z,76.95
2023-04-16T09:15:42.676Z,77.00
2023-04-16T09:16:34.450Z,75.65
2023-04-16T09:17:28.112Z,76.01
2023-04-16T09:18:26.014Z,74.22
2023-04-16T09:19:17.398Z,76.65
2023-04-16T09:20:11.146Z,75.29
2023-04-16T09:21:05.261Z,77.26
2023-04-16T09:22:01.580Z,75.54
2023-04-16T09:22:53.361Z,76.04
2023-04-16T09:23:45.567Z,75.04
2023-04-16T09:24:38.750Z,73.96
2023-04-16T09:25:37.352Z,74.83
2023-04-16T09:26:29.318Z,74.94
2023-04-16T09:27:25.366Z,76.08
2023-04-16T09:28:43.542Z,75.48
2023-04-16T09:29:37.461Z,75.07
2023-04-16T09:30:28.946Z,75.51
2023-04-16T09:31:20.540Z,74.42
2023-04-16T09:32:13.628Z,75.87
2023-04-16T09:33:22.633Z,75.55
2023-04-16T09:34:14.542Z,75.09
2023-04-16T09:35:06.229Z,76.32
2023-04-16T09:36:02.655Z,75.50
2023-04-16T09:36:54.314Z,74.39
2023-04-16T09:37:56.823Z,74.83
2023-04-16T09:38:50.784Z,74.45
2023-04-16T09:39:56.699Z,75.04
2023-04-16T09:40:48.397Z,75.45
2023-04-16T09:41:40.798Z,74.46
2023-04-16T09:42:41.012Z,74.19
2023-04-16T09:43:32.490Z,76.12
2023-04-16T09:44:35.427Z,76.28
2023-04-16T09:45:32.022Z,75.14
2023-04-16T09:46:44.480Z,75.19
2023-04-16T09:47:41.551Z,75.58
2023-04-16T09:48:34.473Z,75.08
2023-04-16T09:49:26.694Z,74.27
2023-04-16T09:50:20.494Z,74.52
2023-04-16T09:51:12.018Z,75.47
2023-04-16T09:52:19.118Z,76.04
2023-04-16T09:53:10.528Z,75.66
2023-04-16T09:54:05.080Z,75.00
2023-04-16T09:54:56.492Z,75.81
2023-04-16T09:55:48.140Z,75.29
2023-04-16T09:56:42.012Z,76.01
2023-04-16T09:57:36.817Z,75.93
2023-04-16T09:58:29.240Z,75.33
2023-04-16T09:59:22.872Z,74.86
2023-04-16T10:00:19.309Z,75.19
2023-04-16T10:01:12.890Z,74.86
2023-04-16T10:02:14.906Z,76.09
2023-04-16T10:03:07.944Z,76.18
2023-04-16T10:03:59.737Z,75.49
2023-04-16T10:04:55.192Z,75.72
2023-04-16T10:05:46.699Z,74.89
2023-04-16T10:06:38.428Z,75.79
2023-04-16T10:07:33.998Z,76.11
2023-04-16T10:08:25.620Z,76.35
2023-04-16T10:09:19.205Z,75.18
2023-04-16T10:10:11.219Z,76.73
2023-04-16T10:11:02.947Z,76.56
2023-04-16T10:11:54.518Z,74.18
2023-04-16T10:12:46.018Z,74.28
2023-04-16T10:13:37.723Z,73.88
2023-04-16T10:14:29.529Z,75.69
2023-04-16T10:15:22.434Z,74.30
2023-04-16T10:16:16.354Z,74.92
2023-04-16T10:17:09.583Z,74.70
2023-04-16T10:18:03.275Z,75.64
2023-04-16T10:18:56.672Z,75.66
2023-04-16T10:19:48.253Z,74.29
2023-04-16T10:20:42.460Z,73.50
2023-04-16T10:21:34.517Z,73.72
2023-04-16T10:22:26.564Z,74.39
2023-04-16T10:23:21.105Z,74.06
2023-04-16T10:24:17.401Z,74.10
2023-04-16T10:25:10.833Z,71.66
2023-04-16T10:26:02.721Z,71.95
2023-04-16T10:26:55.302Z,71.42
2023-04-16T10:27:48.036Z,72.23
2023-04-16T10:28:40.749Z,71.36
2023-04-16T10:29:34.637Z,72.83
2023-04-16T10:30:27.692Z,72.51
2023-04-16T10:31:20.083Z,70.76
2023-04-16T10:32:12.896Z,71.56
2023-04-16T10:33:08.152Z,71.31
2023-04-16T10:34:00.682Z,70.20
2023-04-16T10:34:52.450Z,71.26
2023-04-16T10:35:48.273Z,70.84
2023-04-16T10:36:55.309Z,70.64
2023-04-16T10:37:47.510Z,70.67
2023-04-16T10:38:47.678Z,68.40
2023-04-16T10:39:39.070Z,69.70
2023-04-16T10:40:30.620Z,69.43
2023-04-16T10:41:22.601Z,68.13
2023-04-16T10:42:14.138Z,68.31
2023-04-16T10:43:06.886Z,69.28
2023-04-16T10:44:09.619Z,68.74
2023-04-16T10:45:01.480Z,70.48
2023-04-16T10:45:53.813Z,68.97
2023-04-16T10:46:51.540Z,69.09
2023-04-16T10:47:43.059Z,69.82
2023-04-16T10:48:48.725Z,70.21
2023-04-16T10:49:42.663Z,70.10
2023-04-16T10:50:35.949Z,72.52
2023-04-16T10:51:33.427Z,69.57
2023-04-16T10:52:25.450Z,72.48
2023-04-16T10:53:23.192Z,71.54
2023-04-16T10:54:14.797Z,73.09
2023-04-16T10:55:07.160Z,71.52
2023-04-16T10:56:05.020Z,71.66
2023-04-16T10:56:59.060Z,72.00
2023-04-16T10:57:50.984Z,71.81
2023-04-16T10:58:42.670Z,71.72
2023-04-16T10:59:36.907Z,69.86
2023-04-16T11:00:28.498Z,67.96
2023-04-16T11:01:31.300Z,70.14
2023-04-16T11:02:29.034Z,68.94
2023-04-16T11:03:21.149Z,66.21
2023-04-16T11:04:22.043Z,64.57
2023-04-16T11:05:14.064Z,66.83
2023-04-16T11:06:14.515Z,65.44
2023-04-16T11:07:07.673Z,66.83
2023-04-16T11:08:14.318Z,66.83
2023-04-16T11:09:05.764Z,67.73
2023-04-16T11:10:02.494Z,65.31
2023-04-16T11:10:58.474Z,68.51
2023-04-16T11:11:53.053Z,65.31
2023-04-16T11:12:47.414Z,67.74
2023-04-16T11:13:43.740Z,64.56
2023-04-16T11:14:38.188Z,63.53
2023-04-16T11:15:31.370Z,65.36
2023-04-16T11:16:25.899Z,62.82
2023-04-16T11:17:19.227Z,63.92
2023-04-16T11:18:10.915Z,63.59
2023-04-16T11:19:04.798Z,63.10
2023-04-16T11:19:56.525Z,65.41
2023-04-16T11:20:48.105Z,63.40
2023-04-16T11:21:39.778Z,63.22
2023-04-16T11:22:31.346Z,64.58
2023-04-16T11:23:22.957Z,63.12
2023-04-16T11:24:14.419Z,64.71
2023-04-16T11:25:06.488Z,64.92
2023-04-16T11:26:00.850Z,65.24
2023-04-16T11:26:52.854Z,66.84
2023-04-16T11:27:44.352Z,68.77
2023-04-16T11:28:35.948Z,67.94
2023-04-16T11:29:27.473Z,66.88
2023-04-16T11:30:33.775Z,69.19
2023-04-16T11:31:27.412Z,68.21
2023-04-16T11:32:24.870Z,67.08